sensor_id;sensor_type;location;lat;lon;timestamp;pressure;altitude;pressure_sealevel;temperature;humidity
4598;BME280;62772;48.646;8.906;2023-06-22T00:04:26;96348.59;;;19.90;100.00
4598;BME280;62772;48.646;8.906;2023-06-22T00:09:27;96345.28;;;20.41;100.00
4598;BME280;62772;48.646;8.906;2023-06-22T00:14:27;96358.28;;;20.25;100.00
4598;BME280;62772;48.646;8.906;2023-06-22T00:19:28;96371.78;;;19.84;100.00
4598;BME280;62772;48.646;8.906;2023-06-22T00:24:28;96352.94;;;20.32;100.00
4598;BME280;62772;48.646;8.906;2023-06-22T00:29:29;96361.53;;;18.90;100.00
4598;BME280;62772;48.646;8.906;2023-06-22T00:34:30;96353.66;;;19.61;100.00
4598;BME280;62772;48.646;8.906;2023-06-22T00:39:30;96361.22;;;18.72;100.00
4598;BME280;62772;48.646;8.906;2023-06-22T00:44:33;96344.75;;;19.61;100.00
4598;BME280;62772;48.646;8.906;2023-06-22T00:49:33;96392.22;;;17.92;100.00
4598;BME280;62772;48.646;8.906;2023-06-22T00:54:35;96381.63;;;18.89;100.00
4598;BME280;62772;48.646;8.906;2023-06-22T00:59:36;96402.53;;;17.87;100.00
4598;BME280;62772;48.646;8.906;2023-06-22T01:04:40;96373.19;;;18.71;100.00
4598;BME280;62772;48.646;8.906;2023-06-22T01:15:09;96362.44;;;19.24;100.00
4598;BME280;62772;48.646;8.906;2023-06-22T01:20:11;96360.81;;;19.19;100.00
4598;BME280;62772;48.646;8.906;2023-06-22T01:25:26;96359.69;;;19.78;100.00
4598;BME280;62772;48.646;8.906;2023-06-22T01:30:29;96350.63;;;19.66;100.00
4598;BME280;62772;48.646;8.906;2023-06-22T01:35:31;96354.22;;;18.44;100.00
4598;BME280;62772;48.646;8.906;2023-06-22T01:40:36;96349.59;;;18.67;100.00
4598;BME280;62772;48.646;8.906;2023-06-22T01:45:36;96346.16;;;19.20;100.00
4598;BME280;62772;48.646;8.906;2023-06-22T01:50:37;96364.72;;;18.06;100.00
4598;BME280;62772;48.646;8.906;2023-06-22T01:55:38;96346.03;;;18.87;100.00
4598;BME280;62772;48.646;8.906;2023-06-22T02:00:40;96378.50;;;17.27;100.00
4598;BME280;62772;48.646;8.906;2023-06-22T02:05:48;96355.16;;;18.32;100.00
4598;BME280;62772;48.646;8.906;2023-06-22T02:10:52;96379.25;;;17.27;100.00
4598;BME280;62772;48.646;8.906;2023-06-22T02:15:54;96354.94;;;17.43;100.00
4598;BME280;62772;48.646;8.906;2023-06-22T02:20:55;96327.91;;;17.98;100.00
4598;BME280;62772;48.646;8.906;2023-06-22T02:25:56;96352.59;;;17.41;100.00
4598;BME280;62772;48.646;8.906;2023-06-22T02:30:58;96347.28;;;18.04;100.00
4598;BME280;62772;48.646;8.906;2023-06-22T02:35:59;96349.56;;;18.02;100.00
4598;BME280;62772;48.646;8.906;2023-06-22T02:41:00;96339.41;;;17.95;100.00
4598;BME280;62772;48.646;8.906;2023-06-22T02:46:00;96335.81;;;18.30;100.00
4598;BME280;62772;48.646;8.906;2023-06-22T02:51:01;96335.50;;;18.35;100.00
4598;BME280;62772;48.646;8.906;2023-06-22T02:56:02;96331.66;;;17.93;100.00
4598;BME280;62772;48.646;8.906;2023-06-22T03:01:07;96322.81;;;17.38;100.00
4598;BME280;62772;48.646;8.906;2023-06-22T03:06:09;96328.38;;;17.84;100.00
4598;BME280;62772;48.646;8.906;2023-06-22T03:11:14;96330.75;;;18.28;100.00
4598;BME280;62772;48.646;8.906;2023-06-22T03:16:15;96326.38;;;18.20;100.00
4598;BME280;62772;48.646;8.906;2023-06-22T03:21:16;96321.97;;;17.73;100.00
4598;BME280;62772;48.646;8.906;2023-06-22T03:26:17;96311.03;;;18.05;100.00
4598;BME280;62772;48.646;8.906;2023-06-22T03:31:19;96316.38;;;18.01;100.00
4598;BME280;62772;48.646;8.906;2023-06-22T03:36:21;96310.63;;;17.09;100.00
4598;BME280;62772;48.646;8.906;2023-06-22T03:41:25;96300.66;;;17.87;100.00
4598;BME280;62772;48.646;8.906;2023-06-22T03:46:26;96300.72;;;17.91;100.00
4598;BME280;62772;48.646;8.906;2023-06-22T03:51:27;96304.84;;;17.46;100.00
4598;BME280;62772;48.646;8.906;2023-06-22T03:56:28;96302.50;;;17.83;100.00
4598;BME280;62772;48.646;8.906;2023-06-22T04:01:28;96311.47;;;18.30;100.00
4598;BME280;62772;48.646;8.906;2023-06-22T04:06:29;96299.91;;;18.29;100.00
4598;BME280;62772;48.646;8.906;2023-06-22T04:11:29;96296.69;;;18.24;100.00
4598;BME280;62772;48.646;8.906;2023-06-22T04:16:29;96305.16;;;17.40;100.00
4598;BME280;62772;48.646;8.906;2023-06-22T04:21:31;96294.50;;;18.10;100.00
4598;BME280;62772;48.646;8.906;2023-06-22T04:26:32;96287.31;;;18.18;100.00
4598;BME280;62772;48.646;8.906;2023-06-22T04:31:37;96291.66;;;17.99;100.00
4598;BME280;62772;48.646;8.906;2023-06-22T04:36:40;96282.53;;;17.68;100.00
4598;BME280;62772;48.646;8.906;2023-06-22T04:41:41;96271.88;;;18.18;100.00
4598;BME280;62772;48.646;8.906;2023-06-22T04:46:44;96269.00;;;18.80;100.00
4598;BME280;62772;48.646;8.906;2023-06-22T04:51:44;96283.19;;;18.97;100.00
4598;BME280;62772;48.646;8.906;2023-06-22T04:56:45;96271.16;;;18.44;100.00
4598;BME280;62772;48.646;8.906;2023-06-22T05:01:46;96265.38;;;18.96;100.00
4598;BME280;62772;48.646;8.906;2023-06-22T05:06:47;96263.50;;;19.30;100.00
4598;BME280;62772;48.646;8.906;2023-06-22T05:11:47;96259.06;;;19.15;100.00
4598;BME280;62772;48.646;8.906;2023-06-22T05:16:48;96254.59;;;19.60;100.00
4598;BME280;62772;48.646;8.906;2023-06-22T05:21:49;96248.16;;;19.75;100.00
4598;BME280;62772;48.646;8.906;2023-06-22T05:26:49;96242.38;;;19.77;100.00
4598;BME280;62772;48.646;8.906;2023-06-22T05:31:49;96250.72;;;19.95;100.00
4598;BME280;62772;48.646;8.906;2023-06-22T05:36:51;96250.84;;;20.09;100.00
4598;BME280;62772;48.646;8.906;2023-06-22T05:41:51;96261.03;;;20.23;100.00
4598;BME280;62772;48.646;8.906;2023-06-22T05:46:52;96259.72;;;19.72;100.00
4598;BME280;62772;48.646;8.906;2023-06-22T05:51:53;96251.72;;;20.21;100.00
4598;BME280;62772;48.646;8.906;2023-06-22T05:56:53;96260.25;;;20.23;100.00
4598;BME280;62772;48.646;8.906;2023-06-22T06:01:54;96248.47;;;20.49;100.00
4598;BME280;62772;48.646;8.906;2023-06-22T06:06:54;96249.84;;;20.73;100.00
4598;BME280;62772;48.646;8.906;2023-06-22T06:11:54;96252.63;;;20.88;100.00
4598;BME280;62772;48.646;8.906;2023-06-22T06:16:55;96245.34;;;21.02;100.00
4598;BME280;62772;48.646;8.906;2023-06-22T06:21:55;96247.66;;;21.00;100.00
4598;BME280;62772;48.646;8.906;2023-06-22T06:26:56;96243.44;;;21.03;100.00
4598;BME280;62772;48.646;8.906;2023-06-22T06:31:57;96253.28;;;21.36;100.00
4598;BME280;62772;48.646;8.906;2023-06-22T06:36:57;96261.84;;;21.46;100.00
4598;BME280;62772;48.646;8.906;2023-06-22T06:41:58;96258.81;;;21.62;100.00
4598;BME280;62772;48.646;8.906;2023-06-22T06:46:58;96258.03;;;21.58;100.00
4598;BME280;62772;48.646;8.906;2023-06-22T06:51:58;96244.50;;;21.72;100.00
4598;BME280;62772;48.646;8.906;2023-06-22T06:56:59;96247.59;;;21.78;100.00
4598;BME280;62772;48.646;8.906;2023-06-22T07:01:59;96228.97;;;21.80;100.00
4598;BME280;62772;48.646;8.906;2023-06-22T07:07:01;96229.38;;;21.85;100.00
4598;BME280;62772;48.646;8.906;2023-06-22T07:12:02;96230.59;;;22.13;100.00
4598;BME280;62772;48.646;8.906;2023-06-22T07:17:03;96224.00;;;22.18;100.00
4598;BME280;62772;48.646;8.906;2023-06-22T07:22:04;96215.81;;;22.28;100.00
4598;BME280;62772;48.646;8.906;2023-06-22T07:27:04;96210.41;;;22.36;100.00
4598;BME280;62772;48.646;8.906;2023-06-22T07:32:07;96192.91;;;22.44;100.00
4598;BME280;62772;48.646;8.906;2023-06-22T07:37:07;96193.31;;;22.50;100.00
4598;BME280;62772;48.646;8.906;2023-06-22T07:42:08;96199.88;;;22.63;100.00
4598;BME280;62772;48.646;8.906;2023-06-22T07:47:09;96198.34;;;22.51;100.00
4598;BME280;62772;48.646;8.906;2023-06-22T07:52:10;96216.63;;;22.43;100.00
4598;BME280;62772;48.646;8.906;2023-06-22T07:57:11;96233.72;;;22.51;100.00
4598;BME280;62772;48.646;8.906;2023-06-22T08:02:12;96245.75;;;22.72;100.00
4598;BME280;62772;48.646;8.906;2023-06-22T08:07:12;96248.06;;;22.91;100.00
4598;BME280;62772;48.646;8.906;2023-06-22T08:12:13;96269.81;;;23.02;100.00
4598;BME280;62772;48.646;8.906;2023-06-22T08:17:14;96266.69;;;23.07;100.00
4598;BME280;62772;48.646;8.906;2023-06-22T08:22:15;96277.50;;;23.47;100.00
4598;BME280;62772;48.646;8.906;2023-06-22T08:27:16;96260.31;;;23.61;100.00
4598;BME280;62772;48.646;8.906;2023-06-22T08:32:18;96238.94;;;23.45;100.00
4598;BME280;62772;48.646;8.906;2023-06-22T08:37:19;96251.38;;;23.49;100.00
4598;BME280;62772;48.646;8.906;2023-06-22T08:42:20;96242.38;;;23.63;100.00
4598;BME280;62772;48.646;8.906;2023-06-22T08:47:20;96236.09;;;23.73;100.00
4598;BME280;62772;48.646;8.906;2023-06-22T08:52:23;96255.91;;;23.81;100.00
4598;BME280;62772;48.646;8.906;2023-06-22T08:57:24;96257.38;;;24.04;100.00
4598;BME280;62772;48.646;8.906;2023-06-22T09:02:26;96264.31;;;24.16;100.00
4598;BME280;62772;48.646;8.906;2023-06-22T09:07:26;96244.34;;;24.30;100.00
4598;BME280;62772;48.646;8.906;2023-06-22T09:12:27;96239.88;;;24.50;100.00
4598;BME280;62772;48.646;8.906;2023-06-22T09:17:30;96226.19;;;24.57;100.00
4598;BME280;62772;48.646;8.906;2023-06-22T09:22:31;96210.06;;;24.74;100.00
4598;BME280;62772;48.646;8.906;2023-06-22T09:27:32;96211.31;;;24.62;100.00
4598;BME280;62772;48.646;8.906;2023-06-22T09:32:32;96186.78;;;24.96;100.00
4598;BME280;62772;48.646;8.906;2023-06-22T09:37:33;96185.28;;;24.92;100.00
4598;BME280;62772;48.646;8.906;2023-06-22T09:42:33;96172.28;;;25.03;100.00
4598;BME280;62772;48.646;8.906;2023-06-22T09:47:34;96162.63;;;25.26;99.70
4598;BME280;62772;48.646;8.906;2023-06-22T09:52:35;96163.13;;;25.17;100.00
4598;BME280;62772;48.646;8.906;2023-06-22T09:57:35;96147.28;;;25.35;100.00
4598;BME280;62772;48.646;8.906;2023-06-22T10:02:35;96149.41;;;25.51;100.00
4598;BME280;62772;48.646;8.906;2023-06-22T10:07:36;96149.94;;;25.43;95.78
4598;BME280;62772;48.646;8.906;2023-06-22T10:12:45;96151.69;;;25.84;97.25
4598;BME280;62772;48.646;8.906;2023-06-22T10:17:47;96137.91;;;25.91;97.28
4598;BME280;62772;48.646;8.906;2023-06-22T10:22:47;96144.66;;;25.83;94.95
4598;BME280;62772;48.646;8.906;2023-06-22T10:27:48;96127.44;;;25.86;87.78
4598;BME280;62772;48.646;8.906;2023-06-22T10:32:48;96128.78;;;26.01;88.16
4598;BME280;62772;48.646;8.906;2023-06-22T10:37:49;96126.97;;;26.38;93.87
4598;BME280;62772;48.646;8.906;2023-06-22T10:42:49;96129.81;;;26.55;91.58
4598;BME280;62772;48.646;8.906;2023-06-22T10:47:50;96128.09;;;26.65;92.73
4598;BME280;62772;48.646;8.906;2023-06-22T10:52:50;96125.84;;;26.79;92.76
4598;BME280;62772;48.646;8.906;2023-06-22T10:57:51;96139.06;;;27.05;90.39
4598;BME280;62772;48.646;8.906;2023-06-22T11:02:52;96136.63;;;26.90;89.31
4598;BME280;62772;48.646;8.906;2023-06-22T11:07:53;96136.59;;;27.10;88.08
4598;BME280;62772;48.646;8.906;2023-06-22T11:12:53;96134.13;;;27.16;86.25
4598;BME280;62772;48.646;8.906;2023-06-22T11:17:54;96117.94;;;27.22;87.97
4598;BME280;62772;48.646;8.906;2023-06-22T11:22:54;96107.25;;;27.47;86.14
4598;BME280;62772;48.646;8.906;2023-06-22T11:27:55;96115.09;;;27.45;86.79
4598;BME280;62772;48.646;8.906;2023-06-22T11:32:57;96116.19;;;27.68;85.89
4598;BME280;62772;48.646;8.906;2023-06-22T11:37:58;96098.34;;;27.76;84.75
4598;BME280;62772;48.646;8.906;2023-06-22T11:42:58;96115.84;;;27.82;86.23
4598;BME280;62772;48.646;8.906;2023-06-22T11:47:59;96136.56;;;27.67;87.80
4598;BME280;62772;48.646;8.906;2023-06-22T11:52:59;96153.75;;;27.87;89.38
4598;BME280;62772;48.646;8.906;2023-06-22T11:58:00;96140.56;;;27.99;93.58
4598;BME280;62772;48.646;8.906;2023-06-22T12:03:03;96129.16;;;28.00;91.78
4598;BME280;62772;48.646;8.906;2023-06-22T12:08:04;96126.84;;;27.99;89.25
4598;BME280;62772;48.646;8.906;2023-06-22T12:13:04;96110.88;;;27.94;90.60
4598;BME280;62772;48.646;8.906;2023-06-22T12:18:05;96146.00;;;27.66;95.23
4598;BME280;62772;48.646;8.906;2023-06-22T12:23:05;96167.44;;;27.71;97.42
4598;BME280;62772;48.646;8.906;2023-06-22T12:28:06;96159.66;;;27.86;91.84
4598;BME280;62772;48.646;8.906;2023-06-22T12:33:06;96148.16;;;27.91;89.28
4598;BME280;62772;48.646;8.906;2023-06-22T12:38:06;96154.41;;;27.92;85.12
4598;BME280;62772;48.646;8.906;2023-06-22T12:43:08;96160.72;;;28.09;88.82
4598;BME280;62772;48.646;8.906;2023-06-22T12:48:09;96178.81;;;28.06;84.82
4598;BME280;62772;48.646;8.906;2023-06-22T12:53:09;96172.66;;;27.65;88.39
4598;BME280;62772;48.646;8.906;2023-06-22T12:58:10;96164.03;;;27.47;91.71
4598;BME280;62772;48.646;8.906;2023-06-22T13:03:10;96157.16;;;27.39;95.53
4598;BME280;62772;48.646;8.906;2023-06-22T13:08:10;96145.72;;;27.24;88.16
4598;BME280;62772;48.646;8.906;2023-06-22T13:13:11;96136.78;;;27.40;88.66
4598;BME280;62772;48.646;8.906;2023-06-22T13:18:11;96129.41;;;27.37;92.93
4598;BME280;62772;48.646;8.906;2023-06-22T13:23:12;96120.16;;;27.30;89.53
4598;BME280;62772;48.646;8.906;2023-06-22T13:28:13;96118.75;;;27.59;95.46
4598;BME280;62772;48.646;8.906;2023-06-22T13:33:33;96121.91;;;27.74;88.17
4598;BME280;62772;48.646;8.906;2023-06-22T13:38:35;96127.81;;;27.56;89.68
4598;BME280;62772;48.646;8.906;2023-06-22T13:43:38;96119.75;;;27.48;90.53
4598;BME280;62772;48.646;8.906;2023-06-22T13:48:39;96095.34;;;27.54;99.70
4598;BME280;62772;48.646;8.906;2023-06-22T13:53:39;96081.63;;;28.03;96.76
4598;BME280;62772;48.646;8.906;2023-06-22T13:58:40;96073.16;;;27.98;95.72
4598;BME280;62772;48.646;8.906;2023-06-22T14:03:41;96064.81;;;28.18;85.83
4598;BME280;62772;48.646;8.906;2023-06-22T14:08:41;96064.44;;;28.62;73.50
4598;BME280;62772;48.646;8.906;2023-06-22T14:13:42;96052.94;;;28.80;54.52
4598;BME280;62772;48.646;8.906;2023-06-22T14:18:44;96053.75;;;29.06;50.86
4598;BME280;62772;48.646;8.906;2023-06-22T14:23:45;96060.13;;;29.03;49.66
4598;BME280;62772;48.646;8.906;2023-06-22T14:28:49;96071.91;;;29.03;45.79
4598;BME280;62772;48.646;8.906;2023-06-22T14:33:52;96073.38;;;29.21;45.44
4598;BME280;62772;48.646;8.906;2023-06-22T14:38:52;96089.41;;;29.22;46.12
4598;BME280;62772;48.646;8.906;2023-06-22T14:43:53;96071.72;;;29.23;44.89
4598;BME280;62772;48.646;8.906;2023-06-22T14:48:53;96063.69;;;29.42;44.77
4598;BME280;62772;48.646;8.906;2023-06-22T14:53:54;96054.91;;;29.34;43.98
4598;BME280;62772;48.646;8.906;2023-06-22T14:58:54;96056.53;;;29.44;42.76
4598;BME280;62772;48.646;8.906;2023-06-22T15:03:55;96046.75;;;29.30;44.05
4598;BME280;62772;48.646;8.906;2023-06-22T15:08:55;96037.69;;;29.17;44.37
4598;BME280;62772;48.646;8.906;2023-06-22T15:13:58;96027.59;;;29.27;44.48
4598;BME280;62772;48.646;8.906;2023-06-22T15:18:59;96028.47;;;29.24;44.90
4598;BME280;62772;48.646;8.906;2023-06-22T15:23:59;96029.81;;;29.32;46.40
4598;BME280;62772;48.646;8.906;2023-06-22T15:29:00;96041.53;;;28.81;46.60
4598;BME280;62772;48.646;8.906;2023-06-22T15:34:00;96042.19;;;28.85;46.38
4598;BME280;62772;48.646;8.906;2023-06-22T15:39:02;96031.63;;;28.84;47.09
4598;BME280;62772;48.646;8.906;2023-06-22T15:44:02;96034.78;;;28.69;47.14
4598;BME280;62772;48.646;8.906;2023-06-22T15:49:03;96024.09;;;28.58;48.00
4598;BME280;62772;48.646;8.906;2023-06-22T15:54:03;96032.84;;;28.83;46.49
4598;BME280;62772;48.646;8.906;2023-06-22T15:59:04;96037.69;;;28.49;47.08
4598;BME280;62772;48.646;8.906;2023-06-22T16:04:04;96052.16;;;28.20;48.13
4598;BME280;62772;48.646;8.906;2023-06-22T16:09:05;96043.50;;;28.22;47.86
4598;BME280;62772;48.646;8.906;2023-06-22T16:14:06;96045.69;;;27.98;50.68
4598;BME280;62772;48.646;8.906;2023-06-22T16:19:08;96021.00;;;27.98;51.96
4598;BME280;62772;48.646;8.906;2023-06-22T16:24:09;96004.91;;;28.00;54.98
4598;BME280;62772;48.646;8.906;2023-06-22T16:29:10;95964.22;;;27.95;57.48
4598;BME280;62772;48.646;8.906;2023-06-22T16:34:11;95959.69;;;27.88;54.34
4598;BME280;62772;48.646;8.906;2023-06-22T16:39:11;95953.16;;;28.28;52.73
4598;BME280;62772;48.646;8.906;2023-06-22T16:44:12;95954.34;;;27.68;54.68
4598;BME280;62772;48.646;8.906;2023-06-22T16:49:12;95966.69;;;27.43;55.85
4598;BME280;62772;48.646;8.906;2023-06-22T16:54:13;95983.41;;;27.49;55.02
4598;BME280;62772;48.646;8.906;2023-06-22T16:59:14;95978.03;;;26.92;55.22
4598;BME280;62772;48.646;8.906;2023-06-22T17:04:16;96016.78;;;27.11;55.02
4598;BME280;62772;48.646;8.906;2023-06-22T17:09:21;96016.34;;;27.12;54.26
4598;BME280;62772;48.646;8.906;2023-06-22T17:14:23;96011.81;;;27.22;52.89
4598;BME280;62772;48.646;8.906;2023-06-22T17:19:23;96025.94;;;26.64;54.27
4598;BME280;62772;48.646;8.906;2023-06-22T17:24:24;96031.47;;;26.44;54.26
4598;BME280;62772;48.646;8.906;2023-06-22T17:29:29;96055.94;;;26.51;55.17
4598;BME280;62772;48.646;8.906;2023-06-22T17:34:36;96065.00;;;25.81;58.38
4598;BME280;62772;48.646;8.906;2023-06-22T17:39:37;96062.72;;;25.52;63.80
4598;BME280;62772;48.646;8.906;2023-06-22T17:44:38;96066.63;;;25.51;64.14
4598;BME280;62772;48.646;8.906;2023-06-22T17:49:41;96052.44;;;25.32;65.78
4598;BME280;62772;48.646;8.906;2023-06-22T17:54:42;96047.47;;;24.96;66.95
4598;BME280;62772;48.646;8.906;2023-06-22T17:59:49;96062.25;;;24.99;70.83
4598;BME280;62772;48.646;8.906;2023-06-22T18:04:56;96097.47;;;25.51;69.35
4598;BME280;62772;48.646;8.906;2023-06-22T18:09:58;96123.09;;;25.34;71.58
4598;BME280;62772;48.646;8.906;2023-06-22T18:15:00;96114.06;;;24.37;81.38
4598;BME280;62772;48.646;8.906;2023-06-22T18:20:01;96105.31;;;24.53;92.21
4598;BME280;62772;48.646;8.906;2023-06-22T18:25:04;96082.31;;;23.67;100.00
4598;BME280;62772;48.646;8.906;2023-06-22T18:30:05;96072.09;;;23.23;100.00
4598;BME280;62772;48.646;8.906;2023-06-22T18:35:07;96063.88;;;22.23;100.00
4598;BME280;62772;48.646;8.906;2023-06-22T18:40:08;96044.13;;;23.11;100.00
4598;BME280;62772;48.646;8.906;2023-06-22T18:45:27;96056.53;;;23.23;100.00
4598;BME280;62772;48.646;8.906;2023-06-22T18:55:40;96034.97;;;22.73;100.00
4598;BME280;62772;48.646;8.906;2023-06-22T19:00:41;96052.25;;;23.26;100.00
4598;BME280;62772;48.646;8.906;2023-06-22T19:05:42;96071.81;;;22.99;100.00
4598;BME280;62772;48.646;8.906;2023-06-22T19:10:43;96072.44;;;22.29;100.00
4598;BME280;62772;48.646;8.906;2023-06-22T19:15:44;96084.09;;;22.15;100.00
4598;BME280;62772;48.646;8.906;2023-06-22T19:20:53;96109.75;;;21.85;100.00
4598;BME280;62772;48.646;8.906;2023-06-22T19:26:00;96110.53;;;22.11;100.00
4598;BME280;62772;48.646;8.906;2023-06-22T19:31:01;96106.25;;;22.39;100.00
4598;BME280;62772;48.646;8.906;2023-06-22T19:36:03;96107.84;;;21.89;100.00
4598;BME280;62772;48.646;8.906;2023-06-22T19:41:07;96092.53;;;21.02;100.00
4598;BME280;62772;48.646;8.906;2023-06-22T19:46:08;96108.88;;;21.16;100.00
4598;BME280;62772;48.646;8.906;2023-06-22T19:51:09;96148.22;;;21.87;100.00
4598;BME280;62772;48.646;8.906;2023-06-22T19:56:10;96166.66;;;21.10;100.00
4598;BME280;62772;48.646;8.906;2023-06-22T20:01:10;96172.09;;;21.17;100.00
4598;BME280;62772;48.646;8.906;2023-06-22T20:06:12;96166.66;;;21.10;100.00
4598;BME280;62772;48.646;8.906;2023-06-22T20:11:14;96171.25;;;20.98;100.00
4598;BME280;62772;48.646;8.906;2023-06-22T20:16:16;96170.41;;;20.80;100.00
4598;BME280;62772;48.646;8.906;2023-06-22T20:21:16;96158.47;;;21.02;100.00
4598;BME280;62772;48.646;8.906;2023-06-22T20:26:17;96160.84;;;21.11;100.00
4598;BME280;62772;48.646;8.906;2023-06-22T20:31:17;96180.09;;;20.81;100.00
4598;BME280;62772;48.646;8.906;2023-06-22T20:36:18;96196.72;;;20.72;100.00
4598;BME280;62772;48.646;8.906;2023-06-22T20:41:20;96181.47;;;20.01;100.00
4598;BME280;62772;48.646;8.906;2023-06-22T20:46:20;96171.88;;;20.15;100.00
4598;BME280;62772;48.646;8.906;2023-06-22T20:51:21;96154.00;;;20.03;100.00
4598;BME280;62772;48.646;8.906;2023-06-22T20:56:21;96147.09;;;20.16;100.00
4598;BME280;62772;48.646;8.906;2023-06-22T21:01:24;96154.59;;;20.37;100.00
4598;BME280;62772;48.646;8.906;2023-06-22T21:06:24;96184.53;;;20.52;100.00
4598;BME280;62772;48.646;8.906;2023-06-22T21:11:25;96217.34;;;20.32;100.00
4598;BME280;62772;48.646;8.906;2023-06-22T21:16:25;96216.31;;;20.51;100.00
4598;BME280;62772;48.646;8.906;2023-06-22T21:21:26;96211.78;;;20.66;100.00
4598;BME280;62772;48.646;8.906;2023-06-22T21:26:26;96246.66;;;20.64;100.00
4598;BME280;62772;48.646;8.906;2023-06-22T21:31:26;96255.69;;;20.34;100.00
4598;BME280;62772;48.646;8.906;2023-06-22T21:36:27;96268.88;;;20.32;100.00
4598;BME280;62772;48.646;8.906;2023-06-22T21:41:28;96294.50;;;20.42;100.00
4598;BME280;62772;48.646;8.906;2023-06-22T21:46:28;96312.63;;;19.93;100.00
4598;BME280;62772;48.646;8.906;2023-06-22T21:51:29;96325.91;;;20.02;100.00
4598;BME280;62772;48.646;8.906;2023-06-22T21:56:30;96326.91;;;20.24;100.00
4598;BME280;62772;48.646;8.906;2023-06-22T22:01:30;96338.88;;;20.19;100.00
4598;BME280;62772;48.646;8.906;2023-06-22T22:06:30;96351.88;;;20.03;100.00
4598;BME280;62772;48.646;8.906;2023-06-22T22:11:31;96363.69;;;19.87;100.00
4598;BME280;62772;48.646;8.906;2023-06-22T22:16:31;96361.53;;;19.73;100.00
4598;BME280;62772;48.646;8.906;2023-06-22T22:21:32;96359.78;;;19.58;100.00
4598;BME280;62772;48.646;8.906;2023-06-22T22:26:32;96365.44;;;19.15;100.00
4598;BME280;62772;48.646;8.906;2023-06-22T22:31:35;96351.47;;;19.44;100.00
4598;BME280;62772;48.646;8.906;2023-06-22T22:36:38;96348.56;;;19.86;100.00
4598;BME280;62772;48.646;8.906;2023-06-22T22:41:42;96338.59;;;19.64;100.00
4598;BME280;62772;48.646;8.906;2023-06-22T22:46:43;96345.41;;;19.81;100.00
4598;BME280;62772;48.646;8.906;2023-06-22T22:51:43;96332.09;;;20.02;100.00
4598;BME280;62772;48.646;8.906;2023-06-22T22:56:46;96334.22;;;20.20;100.00
4598;BME280;62772;48.646;8.906;2023-06-22T23:01:47;96336.28;;;19.96;100.00
4598;BME280;62772;48.646;8.906;2023-06-22T23:06:47;96339.69;;;19.59;100.00
4598;BME280;62772;48.646;8.906;2023-06-22T23:11:48;96328.34;;;19.50;100.00
4598;BME280;62772;48.646;8.906;2023-06-22T23:16:48;96329.69;;;19.33;100.00
4598;BME280;62772;48.646;8.906;2023-06-22T23:21:48;96331.97;;;19.31;100.00
4598;BME280;62772;48.646;8.906;2023-06-22T23:26:49;96330.09;;;18.58;100.00
4598;BME280;62772;48.646;8.906;2023-06-22T23:31:52;96331.13;;;18.96;100.00
4598;BME280;62772;48.646;8.906;2023-06-22T23:36:54;96333.81;;;18.96;100.00
4598;BME280;62772;48.646;8.906;2023-06-22T23:41:54;96338.72;;;19.14;100.00
4598;BME280;62772;48.646;8.906;2023-06-22T23:46:55;96351.09;;;19.15;100.00
4598;BME280;62772;48.646;8.906;2023-06-22T23:51:58;96366.31;;;18.96;100.00
4598;BME280;62772;48.646;8.906;2023-06-22T23:56:58;96369.63;;;19.13;100.00
